Lake Eildon, Victoria

2:15 AM AEDT on January 31, 2015 (GMT +1100)
IVICTORI100 | Change Station
CLOSE
Current Station
Personal Weather Station
Location: Thornton, VICTORIA
Elevation: 695 ft
Nearby Weather Stations

Elev 695 ft 37.27 °S, 145.83 °E | Updated 4 minutes ago

Overcast
Overcast
45.5 °F
Feels Like 46 °F
N
2.0
Wind Variable Wind from South
Gusts 3.0 mph

Today
High -- | Low -- °F
--% Chance of Precip.
Yesterday
High -- | Low -- °F
Precip. -- in
6:29 AM 8:29 PM
Waxing Gibbous, 83% visible
Pressure 29.89 in
Visibility 6.2 miles
Clouds Mostly Cloudy 3700 ft
Overcast 4400 ft
Windchill 46 °F
Dew Point 41 °F
Humidity 84%
Rainfall 0.00 in
Snow Depth Not available.
UV 0 out of 12
Pollen Not available.
Air Quality Not available.
Flu Activity Not available.
METAR YMEN 301500Z AUTO 25009KT 9999 // BKN037 OVC044 14/10 Q1012

More Conditions Fewer Conditions

Pressure 29.89 in
Visibility 6.2 miles
Clouds Mostly Cloudy 3700 ft
Overcast 4400 ft
Windchill 46 °F
Dew Point 41 °F
Humidity 84%
Rainfall 0.00 in
Snow Depth Not available.
UV 0 out of 12
Pollen Not available.
Air Quality Not available.
Flu Activity Not available.
METAR YMEN 301500Z AUTO 25009KT 9999 // BKN037 OVC044 14/10 Q1012

More Conditions Fewer Conditions

10-Day Weather Forecast

Almanac

Astronomy

Jan. 31, 2015 Rise Set
Actual Time
Civil Twilight
Nautical Twilight
Astronomical Twilight
Moon
Length of Visible Light
Length of Day
Tomorrow will be .
, % of the Moon is Illuminated

Today's Extremes

Country Highs Country Lows

Community

WunderPhotos

Upload Photos

1,791,784 photos uploaded!

WunderBlogs® & News

Nearby

Air Quality

  Air Quality AQ Index Pollutant
Not available.

Snow Depth

Station Depth Elevation

Earthquake Activity

City Distance Mag. Time & Date
Minimum magnitude displayed is 2.5.

Coastal Water Temperatures

Place Temperature

Nearby Weather Stations